Aeroporto :
LOGIN :

Iscrizione | Disclaimer

   EN    FR    IT 

 










Sommario :    VFR   VFR Marginale   IFR   IFR Intensivo   IFR Molto Intensivo
Visibilità : 
Base nubi : 
>= 8 km
>= 3000ft
5 / 8 km
1000 / 3000 ft
1500m / 5 km
500 / 1000 ft
800 / 1500m
200 / 500 ft
< 800m
< 200 ft
Simboli :   Temporali  Nebbia  Neve Forte  Precipitazioni Forti  Vento > 20 kt
SIGMETs :   Varie  Temporali  Ghiacco  Turbolenza  Onda orograficha  Ceneri Vulcaniche







- Altitudine del aeroporto : 1106 ft
- Carte del aeroporto


LFSO - Nancy / Ochey

ULTIMO METAR :
  • 260130Z AUTO 19006KT 160V220 9999 OVC011 07/06 Q1012

METARs OBSOLETI :
  • 260100Z AUTO 20007KT 9999 BKN011 BKN170 OVC200 07/06 Q1012
  • 260030Z AUTO 21008KT 9999 OVC011 07/06 Q1011
  • 260000Z AUTO 20011KT 9999 OVC011 07/06 Q1012
  • 252330Z AUTO 20010KT 9999 BKN011 OVC098 07/06 Q1012
  • 252300Z AUTO 17006KT 9999 BKN010 OVC096 07/06 Q1011

TAF AMD TAF LFSO
Valido dal 25 a 21 ore il 26 a 21 ore UTC


252110Z 2521/2621 19005KT 9999 BKN013 BKN040
TEMPO 2521/2523 4500 -RADZ BKN006 BKN015 OVC040
BECMG 2523/2601 BKN007
BECMG 2606/2607 BKN012
BECMG 2607/2609 SCT025
TEMPO 2616/2618 20015G30KT
Nessun NOTAM noto per questo aeroporto.



MetMap, La meteo Aeronautica in un colpo d'occhio ! - Copyright ORBIFLY Dicembre 2007 - Disclaimer

ORBIFLY MET'MAP TEAM :

Programmazione e sviluppo : Alexandra Zaïnal
Concezione e sviluppo : Baudouin d'Aumeries
Co-Programmazione e sviluppo : Marc-Olivier Méhu
Supporto tecnico e logistico : Manuel Goepfert
Aiuto per la traduzione : Arnaldo La Scala

Contatto : metmap@orbifly.com




FONTI E CREDITI :

   NOAA